createdAt,value
2022-09-24T00:00:28.116Z,7.50
2022-09-24T00:01:28.217Z,7.40
2022-09-24T00:02:28.166Z,6.90
2022-09-24T00:03:28.122Z,7.80
2022-09-24T00:04:28.106Z,7.70
2022-09-24T00:05:28.107Z,8.00
2022-09-24T00:06:28.102Z,7.60
2022-09-24T00:07:28.100Z,7.00
2022-09-24T00:08:28.101Z,7.30
2022-09-24T00:09:28.097Z,7.50
2022-09-24T00:10:28.100Z,6.60
2022-09-24T00:11:28.094Z,6.60
2022-09-24T00:12:28.099Z,6.60
2022-09-24T00:13:28.091Z,7.20
2022-09-24T00:14:28.094Z,7.20
2022-09-24T00:15:28.087Z,7.60
2022-09-24T00:16:28.202Z,6.80
2022-09-24T00:17:28.091Z,6.80
2022-09-24T00:18:28.082Z,6.40
2022-09-24T00:19:28.109Z,7.00
2022-09-24T00:20:28.082Z,7.20
2022-09-24T00:21:28.092Z,7.20
2022-09-24T00:22:28.080Z,7.30
2022-09-24T00:23:28.075Z,7.30
2022-09-24T00:24:28.076Z,7.00
2022-09-24T00:25:28.071Z,7.20
2022-09-24T00:26:28.069Z,7.30
2022-09-24T00:27:28.066Z,7.30
2022-09-24T00:28:28.066Z,6.40
2022-09-24T00:29:28.064Z,6.70
2022-09-24T00:30:28.064Z,6.90
2022-09-24T00:31:28.098Z,6.80
2022-09-24T00:32:28.060Z,7.10
2022-09-24T00:33:28.058Z,7.30
2022-09-24T00:34:28.068Z,7.60
2022-09-24T00:35:28.077Z,7.40
2022-09-24T00:36:28.073Z,7.20
2022-09-24T00:37:28.054Z,7.50
2022-09-24T00:38:28.051Z,7.40
2022-09-24T00:39:28.051Z,7.20
2022-09-24T00:40:28.088Z,7.60
2022-09-24T00:41:28.047Z,7.20
2022-09-24T00:42:28.043Z,7.60
2022-09-24T00:43:28.042Z,6.90
2022-09-24T00:44:28.051Z,7.20
2022-09-24T00:45:28.049Z,6.80
2022-09-24T00:46:28.082Z,7.20
2022-09-24T00:47:28.033Z,6.80
2022-09-24T00:48:28.036Z,7.30
2022-09-24T00:49:28.031Z,7.30
2022-09-24T00:50:28.029Z,7.40
2022-09-24T00:51:28.043Z,7.30
2022-09-24T00:52:28.027Z,7.20
2022-09-24T00:53:28.022Z,7.00
2022-09-24T00:54:28.026Z,6.70
2022-09-24T00:55:28.019Z,7.10
2022-09-24T00:56:28.022Z,6.70
2022-09-24T00:57:28.023Z,6.50
2022-09-24T00:58:28.015Z,6.90
2022-09-24T00:59:28.014Z,6.50
2022-09-24T01:00:28.120Z,7.30
2022-09-24T01:01:28.090Z,7.50
2022-09-24T01:02:28.093Z,7.50
2022-09-24T01:03:28.004Z,7.20
2022-09-24T01:04:28.005Z,7.10
2022-09-24T01:05:28.005Z,7.10
2022-09-24T01:06:28.002Z,7.00
2022-09-24T01:07:28.021Z,7.00
2022-09-24T01:08:28.004Z,7.70
2022-09-24T01:09:27.996Z,7.50
2022-09-24T01:10:27.994Z,7.30
2022-09-24T01:11:27.990Z,7.10
2022-09-24T01:12:27.992Z,7.40
2022-09-24T01:13:27.987Z,7.20
2022-09-24T01:14:28.042Z,7.40
2022-09-24T01:15:27.989Z,7.70
2022-09-24T01:16:28.201Z,7.30
2022-09-24T01:17:27.981Z,7.80
2022-09-24T01:18:27.982Z,7.20
2022-09-24T01:19:27.980Z,6.90
2022-09-24T01:20:27.987Z,7.30
2022-09-24T01:21:27.981Z,7.40
2022-09-24T01:22:27.985Z,7.20
2022-09-24T01:23:28.157Z,7.10
2022-09-24T01:24:27.968Z,7.30
2022-09-24T01:25:27.973Z,7.30
2022-09-24T01:26:27.974Z,7.10
2022-09-24T01:27:27.963Z,7.30
2022-09-24T01:28:27.964Z,7.40
2022-09-24T01:29:27.964Z,7.20
2022-09-24T01:30:27.959Z,7.00
2022-09-24T01:31:28.066Z,7.20
2022-09-24T01:32:32.337Z,6.60
2022-09-24T01:33:27.956Z,7.00
2022-09-24T01:34:27.954Z,7.00
2022-09-24T01:35:27.951Z,7.50
2022-09-24T01:36:27.950Z,6.80
2022-09-24T01:37:27.948Z,7.10
2022-09-24T01:38:27.947Z,7.50
2022-09-24T01:39:28.365Z,7.40
2022-09-24T01:40:28.040Z,7.20
2022-09-24T01:41:27.942Z,7.60
2022-09-24T01:42:27.946Z,7.70
2022-09-24T01:43:27.934Z,7.60
2022-09-24T01:44:27.940Z,7.00
2022-09-24T01:45:27.931Z,7.50
2022-09-24T01:46:28.014Z,7.70
2022-09-24T01:47:32.189Z,7.40
2022-09-24T01:48:27.931Z,7.40
2022-09-24T01:49:27.927Z,7.30
2022-09-24T01:50:27.923Z,7.50
2022-09-24T01:51:27.926Z,7.00
2022-09-24T01:52:27.920Z,7.00
2022-09-24T01:53:27.918Z,7.40
2022-09-24T01:54:27.917Z,7.40
2022-09-24T01:55:27.937Z,7.80
2022-09-24T01:56:27.917Z,7.30
2022-09-24T01:57:27.914Z,7.30
2022-09-24T01:58:27.916Z,7.80
2022-09-24T01:59:27.912Z,7.30
2022-09-24T02:00:28.078Z,7.30
2022-09-24T02:01:27.979Z,7.60
2022-09-24T02:02:27.997Z,7.90
2022-09-24T02:03:27.904Z,7.90
2022-09-24T02:04:27.900Z,8.00
2022-09-24T02:05:27.899Z,8.20
2022-09-24T02:06:27.896Z,7.70
2022-09-24T02:07:27.894Z,7.00
2022-09-24T02:08:27.893Z,7.50
2022-09-24T02:09:27.894Z,7.70
2022-09-24T02:10:27.889Z,7.50
2022-09-24T02:11:27.932Z,7.60
2022-09-24T02:12:27.891Z,7.30
2022-09-24T02:13:27.894Z,8.10
2022-09-24T02:14:27.883Z,7.50
2022-09-24T02:15:32.259Z,7.90
2022-09-24T02:16:27.962Z,7.70
2022-09-24T02:17:27.884Z,7.70
2022-09-24T02:18:27.878Z,7.20
2022-09-24T02:19:27.883Z,7.20
2022-09-24T02:20:27.873Z,7.50
2022-09-24T02:21:27.874Z,7.40
2022-09-24T02:22:27.871Z,7.40
2022-09-24T02:23:27.869Z,7.50
2022-09-24T02:24:27.867Z,7.30
2022-09-24T02:25:27.865Z,7.60
2022-09-24T02:26:27.875Z,7.60
2022-09-24T02:27:27.879Z,7.80
2022-09-24T02:28:27.860Z,8.00
2022-09-24T02:29:27.858Z,8.00
2022-09-24T02:30:27.856Z,8.30
2022-09-24T02:31:27.934Z,8.20
2022-09-24T02:32:27.857Z,7.60
2022-09-24T02:33:27.857Z,8.10
2022-09-24T02:34:27.851Z,8.60
2022-09-24T02:35:27.852Z,7.80
2022-09-24T02:36:27.844Z,7.60
2022-09-24T02:37:27.847Z,7.90
2022-09-24T02:38:27.844Z,7.40
2022-09-24T02:39:27.841Z,7.30
2022-09-24T02:40:27.889Z,7.30
2022-09-24T02:41:27.839Z,7.30
2022-09-24T02:42:27.843Z,6.80
2022-09-24T02:43:33.826Z,7.70
2022-09-24T02:44:28.252Z,7.60
2022-09-24T02:45:27.834Z,7.90
2022-09-24T02:46:27.899Z,7.70
2022-09-24T02:47:27.827Z,7.30
2022-09-24T02:48:27.831Z,7.10
2022-09-24T02:49:27.831Z,7.20
2022-09-24T02:50:27.823Z,7.10
2022-09-24T02:51:27.828Z,7.20
2022-09-24T02:52:27.819Z,7.20
2022-09-24T02:53:27.820Z,7.40
2022-09-24T02:54:27.818Z,7.70
2022-09-24T02:55:27.816Z,7.60
2022-09-24T02:56:27.813Z,7.50
2022-09-24T02:57:27.811Z,7.70
2022-09-24T02:58:27.807Z,7.40
2022-09-24T02:59:27.804Z,7.40
2022-09-24T03:00:27.912Z,7.30
2022-09-24T03:01:27.857Z,7.80
2022-09-24T03:02:27.924Z,7.60
2022-09-24T03:03:27.799Z,7.50
2022-09-24T03:04:27.800Z,8.30
2022-09-24T03:05:27.804Z,8.20
2022-09-24T03:06:27.796Z,8.50
2022-09-24T03:07:27.798Z,8.40
2022-09-24T03:08:27.792Z,8.20
2022-09-24T03:09:27.790Z,8.20
2022-09-24T03:10:27.793Z,8.40
2022-09-24T03:11:27.786Z,7.60
2022-09-24T03:12:27.783Z,8.00
2022-09-24T03:13:27.787Z,8.00
2022-09-24T03:14:27.780Z,8.00
2022-09-24T03:15:27.779Z,7.80
2022-09-24T03:16:27.910Z,8.00
2022-09-24T03:17:27.780Z,8.10
2022-09-24T03:18:27.777Z,7.80
2022-09-24T03:19:27.781Z,8.40
2022-09-24T03:20:27.768Z,7.80
2022-09-24T03:21:27.771Z,8.10
2022-09-24T03:22:27.772Z,8.10
2022-09-24T03:23:27.767Z,7.60
2022-09-24T03:24:27.763Z,8.00
2022-09-24T03:25:27.776Z,8.20
2022-09-24T03:26:27.759Z,8.10
2022-09-24T03:27:27.760Z,8.00
2022-09-24T03:28:27.759Z,7.90
2022-09-24T03:29:27.756Z,7.90
2022-09-24T03:30:27.756Z,8.30
2022-09-24T03:31:27.850Z,8.20
2022-09-24T03:32:27.786Z,8.10
2022-09-24T03:33:27.751Z,8.00
2022-09-24T03:34:27.748Z,8.40
2022-09-24T03:35:27.749Z,8.20
2022-09-24T03:36:27.743Z,8.30
2022-09-24T03:37:27.749Z,8.40
2022-09-24T03:38:27.746Z,8.50
2022-09-24T03:39:27.741Z,8.00
2022-09-24T03:40:27.808Z,8.00
2022-09-24T03:41:27.821Z,8.40
2022-09-24T03:42:27.737Z,8.00
2022-09-24T03:43:27.737Z,8.10
2022-09-24T03:44:27.735Z,8.00
2022-09-24T03:45:27.732Z,7.80
2022-09-24T03:46:27.805Z,8.10
2022-09-24T03:47:27.727Z,8.20
2022-09-24T03:48:27.743Z,8.00
2022-09-24T03:49:27.727Z,7.70
2022-09-24T03:50:27.733Z,7.80
2022-09-24T03:51:27.730Z,7.70
2022-09-24T03:52:27.716Z,7.90
2022-09-24T03:53:27.718Z,8.00
2022-09-24T03:54:27.718Z,7.50
2022-09-24T03:55:27.713Z,7.60
2022-09-24T03:56:27.711Z,8.20
2022-09-24T03:57:27.711Z,8.00
2022-09-24T03:58:27.716Z,8.40
2022-09-24T03:59:27.723Z,7.80
2022-09-24T04:00:27.706Z,8.20
2022-09-24T04:01:27.760Z,8.10
2022-09-24T04:02:27.769Z,8.00
2022-09-24T04:03:27.702Z,8.00
2022-09-24T04:04:27.715Z,7.50
2022-09-24T04:05:27.699Z,7.80
2022-09-24T04:06:27.698Z,7.70
2022-09-24T04:07:27.694Z,7.40
2022-09-24T04:08:27.689Z,7.60
2022-09-24T04:09:27.692Z,7.50
2022-09-24T04:10:27.687Z,7.10
2022-09-24T04:11:27.690Z,7.50
2022-09-24T04:12:27.682Z,7.20
2022-09-24T04:13:27.683Z,7.60
2022-09-24T04:14:27.684Z,7.60
2022-09-24T04:15:27.684Z,7.50
2022-09-24T04:16:27.747Z,8.10
2022-09-24T04:17:27.674Z,8.10
2022-09-24T04:18:27.674Z,7.90
2022-09-24T04:19:27.671Z,8.10
2022-09-24T04:20:27.688Z,8.10
2022-09-24T04:21:27.666Z,8.50
2022-09-24T04:22:27.674Z,8.40
2022-09-24T04:23:27.661Z,8.60
2022-09-24T04:24:27.662Z,8.60
2022-09-24T04:25:27.662Z,8.80
2022-09-24T04:26:27.656Z,8.90
2022-09-24T04:27:27.660Z,8.70
2022-09-24T04:28:27.653Z,8.70
2022-09-24T04:29:27.656Z,9.00
2022-09-24T04:30:27.662Z,8.90
2022-09-24T04:31:27.777Z,8.80
2022-09-24T04:32:27.649Z,8.50
2022-09-24T04:33:27.646Z,8.50
2022-09-24T04:34:27.642Z,8.50
2022-09-24T04:35:27.645Z,9.10
2022-09-24T04:36:27.658Z,8.70
2022-09-24T04:37:27.637Z,8.70
2022-09-24T04:38:27.634Z,8.80
2022-09-24T04:39:27.636Z,8.70
2022-09-24T04:40:27.714Z,8.20
2022-09-24T04:41:27.633Z,8.60
2022-09-24T04:42:27.630Z,8.70
2022-09-24T04:43:27.626Z,8.40
2022-09-24T04:44:27.623Z,8.90
2022-09-24T04:45:27.622Z,8.70
2022-09-24T04:46:27.689Z,8.70
2022-09-24T04:47:27.628Z,8.30
2022-09-24T04:48:27.627Z,8.20
2022-09-24T04:49:27.821Z,8.40
2022-09-24T04:50:27.617Z,7.70
2022-09-24T04:51:27.612Z,7.70
2022-09-24T04:52:27.663Z,7.60
2022-09-24T04:53:27.610Z,7.60
2022-09-24T04:54:27.608Z,8.10
2022-09-24T04:55:27.605Z,8.50
2022-09-24T04:56:27.601Z,8.50
2022-09-24T04:57:27.603Z,9.00
2022-09-24T04:58:27.604Z,9.10
2022-09-24T04:59:27.620Z,9.10
2022-09-24T05:00:27.601Z,8.50
2022-09-24T05:01:27.648Z,8.90
2022-09-24T05:02:27.694Z,8.70
2022-09-24T05:03:27.594Z,8.80
2022-09-24T05:04:27.588Z,8.70
2022-09-24T05:05:27.590Z,9.10
2022-09-24T05:06:27.585Z,8.40
2022-09-24T05:07:27.589Z,8.70
2022-09-24T05:08:27.597Z,9.10
2022-09-24T05:09:27.581Z,8.80
2022-09-24T05:10:27.580Z,9.50
2022-09-24T05:11:27.577Z,9.10
2022-09-24T05:12:27.572Z,9.20
2022-09-24T05:13:27.571Z,9.60
2022-09-24T05:14:27.570Z,8.70
2022-09-24T05:15:27.570Z,8.80
2022-09-24T05:16:27.641Z,9.00
2022-09-24T05:17:27.568Z,9.00
2022-09-24T05:18:27.565Z,9.30
2022-09-24T05:19:27.562Z,9.00
2022-09-24T05:20:27.562Z,8.60
2022-09-24T05:21:27.559Z,8.90
2022-09-24T05:22:27.562Z,9.20
2022-09-24T05:23:27.554Z,8.40
2022-09-24T05:24:27.568Z,8.90
2022-09-24T05:25:27.563Z,8.70
2022-09-24T05:26:27.554Z,9.00
2022-09-24T05:27:27.547Z,8.40
2022-09-24T05:28:27.544Z,8.80
2022-09-24T05:29:27.541Z,9.00
2022-09-24T05:30:27.543Z,8.80
2022-09-24T05:31:27.622Z,9.10
2022-09-24T05:32:27.535Z,8.10
2022-09-24T05:33:27.536Z,8.60
2022-09-24T05:34:27.533Z,8.70
2022-09-24T05:35:27.529Z,9.00
2022-09-24T05:36:27.525Z,8.80
2022-09-24T05:37:27.528Z,9.10
2022-09-24T05:38:27.526Z,9.30
2022-09-24T05:39:32.802Z,9.70
2022-09-24T05:40:27.615Z,9.20
2022-09-24T05:41:27.521Z,8.80
2022-09-24T05:42:27.517Z,9.30
2022-09-24T05:43:27.517Z,9.30
2022-09-24T05:44:27.514Z,9.10
2022-09-24T05:45:27.515Z,9.10
2022-09-24T05:46:27.576Z,9.00
2022-09-24T05:47:27.511Z,8.80
2022-09-24T05:48:27.506Z,9.90
2022-09-24T05:49:27.532Z,9.30
2022-09-24T05:50:27.659Z,8.80
2022-09-24T05:51:27.524Z,8.90
2022-09-24T05:52:27.501Z,8.80
2022-09-24T05:53:27.499Z,8.80
2022-09-24T05:54:27.502Z,8.50
2022-09-24T05:55:32.070Z,8.40
2022-09-24T05:56:27.512Z,8.40
2022-09-24T05:57:27.497Z,8.50
2022-09-24T05:58:27.496Z,9.20
2022-09-24T05:59:27.490Z,8.50
2022-09-24T06:00:27.505Z,8.60
2022-09-24T06:01:27.544Z,8.60
2022-09-24T06:02:27.485Z,9.00
2022-09-24T06:03:27.503Z,9.60
2022-09-24T06:04:27.480Z,8.80
2022-09-24T06:05:27.478Z,8.90
2022-09-24T06:06:27.479Z,9.30
2022-09-24T06:07:27.474Z,9.80
2022-09-24T06:08:27.481Z,9.50
2022-09-24T06:09:27.470Z,9.60
2022-09-24T06:10:27.589Z,9.60
2022-09-24T06:11:27.468Z,9.60
2022-09-24T06:12:27.487Z,8.90
2022-09-24T06:13:27.463Z,9.70
2022-09-24T06:14:27.464Z,9.20
2022-09-24T06:15:27.569Z,9.90
2022-09-24T06:16:27.560Z,9.60
2022-09-24T06:17:27.459Z,10.20
2022-09-24T06:18:27.459Z,10.00
2022-09-24T06:19:27.454Z,9.30
2022-09-24T06:20:27.533Z,9.80
2022-09-24T06:21:27.451Z,9.80
2022-09-24T06:22:28.728Z,10.30
2022-09-24T06:23:27.444Z,10.00
2022-09-24T06:24:27.445Z,10.30
2022-09-24T06:25:27.443Z,10.00
2022-09-24T06:26:27.442Z,9.70
2022-09-24T06:27:27.437Z,9.90
2022-09-24T06:28:27.456Z,9.40
2022-09-24T06:29:27.438Z,10.30
2022-09-24T06:30:27.434Z,9.50
2022-09-24T06:31:27.497Z,9.90
2022-09-24T06:32:27.437Z,10.10
2022-09-24T06:33:27.430Z,10.20
2022-09-24T06:34:27.431Z,10.50
2022-09-24T06:35:27.425Z,9.60
2022-09-24T06:36:27.427Z,9.60
2022-09-24T06:37:27.421Z,10.00
2022-09-24T06:38:27.424Z,9.70
2022-09-24T06:39:27.417Z,10.10
2022-09-24T06:40:29.408Z,9.80
2022-09-24T06:41:27.415Z,10.20
2022-09-24T06:42:27.413Z,9.40
2022-09-24T06:43:27.414Z,10.30
2022-09-24T06:44:27.516Z,9.90
2022-09-24T06:45:27.409Z,10.00
2022-09-24T06:46:27.474Z,9.90
2022-09-24T06:47:27.406Z,10.50
2022-09-24T06:48:27.407Z,10.30
2022-09-24T06:49:32.979Z,10.90
2022-09-24T06:50:27.401Z,10.90
2022-09-24T06:51:27.596Z,10.90
2022-09-24T06:52:27.397Z,11.00
2022-09-24T06:53:27.393Z,10.60
2022-09-24T06:54:27.394Z,10.80
2022-09-24T06:55:27.390Z,10.40
2022-09-24T06:56:27.389Z,10.30
2022-09-24T06:57:29.101Z,10.80
2022-09-24T06:58:27.391Z,10.50
2022-09-24T06:59:27.387Z,10.20
2022-09-24T07:00:27.405Z,10.10
2022-09-24T07:01:27.478Z,10.70
2022-09-24T07:02:27.494Z,10.50
2022-09-24T07:03:27.375Z,10.60
2022-09-24T07:04:27.378Z,10.60
2022-09-24T07:05:27.373Z,10.70
2022-09-24T07:06:27.374Z,10.40
2022-09-24T07:07:27.368Z,10.50
2022-09-24T07:08:27.371Z,10.40
2022-09-24T07:09:27.367Z,10.90
2022-09-24T07:10:27.370Z,10.10
2022-09-24T07:11:27.364Z,10.90
2022-09-24T07:12:27.364Z,10.60
2022-09-24T07:13:27.362Z,10.80
2022-09-24T07:14:27.361Z,11.30
2022-09-24T07:15:27.356Z,10.60
2022-09-24T07:16:27.453Z,11.00
2022-09-24T07:17:32.903Z,11.80
2022-09-24T07:18:27.364Z,13.10
2022-09-24T07:19:27.349Z,12.70
2022-09-24T07:20:27.351Z,12.20
2022-09-24T07:21:27.348Z,11.60
2022-09-24T07:22:27.350Z,11.30
2022-09-24T07:23:27.344Z,11.00
2022-09-24T07:24:27.345Z,11.40
2022-09-24T07:25:27.342Z,12.10
2022-09-24T07:26:27.345Z,12.00
2022-09-24T07:27:27.337Z,11.70
2022-09-24T07:28:27.342Z,11.50
2022-09-24T07:29:27.337Z,11.60
2022-09-24T07:30:27.339Z,11.70
2022-09-24T07:31:27.382Z,11.50
2022-09-24T07:32:29.997Z,11.70
2022-09-24T07:33:27.328Z,11.70
2022-09-24T07:34:27.331Z,11.00
2022-09-24T07:35:27.326Z,11.70
2022-09-24T07:36:27.329Z,11.90
2022-09-24T07:37:27.321Z,11.60
2022-09-24T07:38:27.326Z,11.60
2022-09-24T07:39:27.318Z,11.40
2022-09-24T07:40:27.333Z,11.80
2022-09-24T07:41:27.315Z,11.00
2022-09-24T07:42:27.318Z,11.30
2022-09-24T07:43:27.311Z,11.40
2022-09-24T07:44:27.313Z,11.90
2022-09-24T07:45:27.310Z,11.80
2022-09-24T07:46:27.385Z,12.50
2022-09-24T07:47:27.306Z,12.20
2022-09-24T07:48:27.329Z,11.60
2022-09-24T07:49:27.303Z,11.90
2022-09-24T07:50:27.319Z,11.80
2022-09-24T07:51:27.710Z,11.90
2022-09-24T07:52:27.303Z,11.90
2022-09-24T07:53:27.302Z,11.80
2022-09-24T07:54:27.298Z,11.70
2022-09-24T07:55:27.294Z,11.60
2022-09-24T07:56:27.294Z,12.50
2022-09-24T07:57:27.293Z,12.50
2022-09-24T07:58:27.310Z,12.50
2022-09-24T07:59:27.290Z,12.10
2022-09-24T08:00:27.290Z,12.30
2022-09-24T08:01:27.350Z,12.70
2022-09-24T08:02:27.292Z,12.40
2022-09-24T08:03:27.343Z,12.40
2022-09-24T08:04:27.305Z,12.30
2022-09-24T08:05:27.279Z,13.10
2022-09-24T08:06:27.286Z,13.50
2022-09-24T08:07:27.276Z,14.70
2022-09-24T08:08:27.278Z,14.30
2022-09-24T08:09:27.276Z,14.40
2022-09-24T08:10:27.277Z,14.40
2022-09-24T08:11:27.272Z,14.80
2022-09-24T08:12:27.285Z,13.50
2022-09-24T08:13:28.056Z,14.00
2022-09-24T08:14:27.268Z,14.30
2022-09-24T08:15:27.265Z,14.50
2022-09-24T08:16:27.377Z,16.00
2022-09-24T08:17:27.263Z,14.90
2022-09-24T08:18:27.264Z,15.10
2022-09-24T08:19:27.258Z,15.80
2022-09-24T08:20:27.282Z,15.80
2022-09-24T08:21:27.255Z,16.60
2022-09-24T08:22:27.257Z,16.50
2022-09-24T08:23:27.255Z,16.80
2022-09-24T08:24:27.261Z,16.00
2022-09-24T08:25:27.257Z,15.90
2022-09-24T08:26:27.255Z,16.40
2022-09-24T08:27:27.247Z,16.50
2022-09-24T08:28:27.251Z,17.90
2022-09-24T08:29:27.245Z,17.10
2022-09-24T08:30:27.247Z,16.80
2022-09-24T08:31:27.280Z,17.10
2022-09-24T08:32:27.245Z,17.10
2022-09-24T08:33:27.241Z,16.60
2022-09-24T08:34:27.249Z,16.50
2022-09-24T08:35:27.239Z,16.60
2022-09-24T08:36:27.286Z,17.30
2022-09-24T08:37:27.235Z,17.70
2022-09-24T08:38:27.247Z,17.40
2022-09-24T08:39:27.235Z,17.60
2022-09-24T08:40:27.283Z,17.60
2022-09-24T08:41:27.229Z,17.40
2022-09-24T08:42:27.231Z,17.20
2022-09-24T08:43:27.226Z,16.70
2022-09-24T08:44:27.234Z,17.10
2022-09-24T08:45:27.225Z,17.90
2022-09-24T08:46:27.314Z,17.90
2022-09-24T08:47:27.227Z,18.00
2022-09-24T08:48:27.221Z,18.10
2022-09-24T08:49:27.220Z,17.60
2022-09-24T08:50:27.219Z,16.90
2022-09-24T08:51:32.739Z,17.10
2022-09-24T08:52:27.235Z,16.70
2022-09-24T08:53:27.213Z,17.40
2022-09-24T08:54:27.213Z,18.30
2022-09-24T08:55:27.210Z,18.90
2022-09-24T08:56:27.215Z,18.70
2022-09-24T08:57:27.219Z,18.50
2022-09-24T08:58:27.213Z,18.70
2022-09-24T08:59:27.204Z,17.30
2022-09-24T09:00:27.220Z,19.60
2022-09-24T09:01:27.296Z,20.00
2022-09-24T09:02:27.384Z,19.60
2022-09-24T09:03:27.202Z,18.30
2022-09-24T09:04:27.199Z,19.20
2022-09-24T09:05:27.197Z,19.70
2022-09-24T09:06:27.204Z,19.70
2022-09-24T09:07:27.194Z,20.30
2022-09-24T09:08:54.646Z,20.10
2022-09-24T09:09:27.192Z,20.40
2022-09-24T09:10:27.217Z,20.20
2022-09-24T09:11:27.191Z,19.20
2022-09-24T09:12:27.195Z,21.00
2022-09-24T09:13:27.185Z,20.40
2022-09-24T09:14:31.303Z,20.20
2022-09-24T09:15:27.185Z,20.10
2022-09-24T09:16:27.250Z,19.70
2022-09-24T09:17:27.185Z,19.20
2022-09-24T09:18:27.187Z,19.20
2022-09-24T09:19:27.181Z,19.10
2022-09-24T09:20:27.177Z,18.80
2022-09-24T09:21:27.178Z,19.00
2022-09-24T09:22:27.178Z,19.60
2022-09-24T09:23:27.172Z,19.00
2022-09-24T09:24:27.283Z,19.60
2022-09-24T09:25:27.172Z,18.80
2022-09-24T09:26:27.173Z,18.50
2022-09-24T09:27:27.166Z,19.40
2022-09-24T09:28:27.167Z,19.40
2022-09-24T09:29:27.171Z,18.90
2022-09-24T09:30:27.167Z,19.60
2022-09-24T09:31:27.222Z,18.90
2022-09-24T09:32:27.162Z,18.10
2022-09-24T09:33:27.158Z,18.30
2022-09-24T09:34:27.161Z,19.30
2022-09-24T09:35:27.173Z,19.00
2022-09-24T09:36:27.163Z,18.50
2022-09-24T09:37:27.157Z,18.90
2022-09-24T09:38:27.155Z,19.80
2022-09-24T09:39:27.167Z,19.80
2022-09-24T09:40:31.648Z,19.00
2022-09-24T09:41:27.148Z,18.30
2022-09-24T09:42:27.154Z,17.50
2022-09-24T09:43:27.157Z,16.80
2022-09-24T09:44:27.148Z,18.10
2022-09-24T09:45:28.234Z,19.20
2022-09-24T09:46:27.263Z,18.40
2022-09-24T09:47:27.144Z,18.40
2022-09-24T09:48:27.143Z,18.60
2022-09-24T09:49:27.139Z,18.30
2022-09-24T09:50:27.140Z,17.50
2022-09-24T09:51:27.286Z,17.70
2022-09-24T09:52:27.145Z,18.80
2022-09-24T09:53:27.133Z,18.40
2022-09-24T09:54:27.142Z,18.00
2022-09-24T09:55:27.133Z,17.10
2022-09-24T09:56:27.155Z,17.50
2022-09-24T09:57:27.129Z,18.00
2022-09-24T09:58:27.155Z,18.40
2022-09-24T09:59:29.688Z,17.90
2022-09-24T10:00:27.140Z,17.90
2022-09-24T10:01:27.148Z,17.80
2022-09-24T10:02:27.348Z,16.90
2022-09-24T10:03:27.212Z,17.00
2022-09-24T10:04:27.134Z,17.40
2022-09-24T10:05:27.610Z,16.90
2022-09-24T10:06:27.126Z,16.80
2022-09-24T10:07:27.139Z,17.10
2022-09-24T10:08:27.121Z,16.30
2022-09-24T10:09:27.122Z,16.70
2022-09-24T10:10:27.121Z,16.90
2022-09-24T10:11:27.113Z,16.60
2022-09-24T10:12:27.133Z,17.20
2022-09-24T10:13:27.114Z,16.70
2022-09-24T10:14:27.112Z,15.60
2022-09-24T10:15:27.108Z,16.80
2022-09-24T10:16:27.177Z,16.80
2022-09-24T10:17:27.105Z,16.60
2022-09-24T10:18:27.109Z,15.80
2022-09-24T10:19:27.105Z,16.30
2022-09-24T10:20:27.102Z,16.20
2022-09-24T10:21:28.390Z,17.00
2022-09-24T10:22:27.107Z,16.00
2022-09-24T10:23:27.102Z,16.10
2022-09-24T10:24:27.106Z,16.00
2022-09-24T10:25:27.127Z,17.20
2022-09-24T10:26:27.095Z,16.40
2022-09-24T10:27:27.097Z,16.00
2022-09-24T10:28:27.114Z,15.60
2022-09-24T10:29:27.115Z,16.90
2022-09-24T10:30:27.118Z,16.40
2022-09-24T10:31:27.175Z,16.60
2022-09-24T10:32:27.098Z,16.20
2022-09-24T10:33:27.092Z,16.90
2022-09-24T10:34:27.116Z,17.10
2022-09-24T10:35:27.093Z,17.40
2022-09-24T10:36:27.088Z,17.60
2022-09-24T10:37:27.111Z,17.10
2022-09-24T10:38:27.082Z,17.80
2022-09-24T10:39:27.085Z,16.80
2022-09-24T10:40:27.113Z,16.10
2022-09-24T10:41:27.083Z,16.90
2022-09-24T10:42:27.082Z,15.30
2022-09-24T10:43:27.082Z,15.60
2022-09-24T10:44:27.184Z,15.40
2022-09-24T10:45:27.080Z,15.60
2022-09-24T10:46:27.138Z,16.80
2022-09-24T10:47:27.078Z,16.90
2022-09-24T10:48:27.075Z,16.60
2022-09-24T10:49:27.072Z,16.10
2022-09-24T10:50:27.070Z,16.70
2022-09-24T10:51:29.338Z,16.80
2022-09-24T10:52:27.067Z,17.30
2022-09-24T10:53:27.075Z,16.30
2022-09-24T10:54:27.069Z,15.60
2022-09-24T10:55:27.066Z,16.10
2022-09-24T10:56:27.065Z,15.20
2022-09-24T10:57:27.071Z,16.90
2022-09-24T10:58:27.063Z,15.90
2022-09-24T10:59:27.065Z,15.70
2022-09-24T11:00:27.079Z,18.00
2022-09-24T11:01:27.188Z,18.70
2022-09-24T11:02:27.095Z,18.30
2022-09-24T11:03:27.058Z,17.10
2022-09-24T11:04:27.063Z,17.00
2022-09-24T11:05:27.056Z,17.70
2022-09-24T11:06:27.053Z,17.50
2022-09-24T11:07:27.052Z,16.90
2022-09-24T11:08:27.076Z,17.30
2022-09-24T11:09:27.053Z,17.80
2022-09-24T11:10:27.049Z,18.10
2022-09-24T11:11:27.050Z,17.80
2022-09-24T11:12:27.048Z,17.70
2022-09-24T11:13:27.047Z,18.00
2022-09-24T11:14:27.047Z,17.70
2022-09-24T11:15:27.045Z,17.70
2022-09-24T11:16:27.124Z,17.80
2022-09-24T11:17:27.049Z,17.30
2022-09-24T11:18:27.041Z,17.40
2022-09-24T11:19:27.044Z,17.50
2022-09-24T11:20:27.040Z,16.60
2022-09-24T11:21:27.040Z,18.30
2022-09-24T11:22:27.043Z,17.60
2022-09-24T11:23:27.040Z,18.00
2022-09-24T11:24:27.036Z,16.20
2022-09-24T11:25:27.037Z,17.10
2022-09-24T11:26:27.034Z,18.50
2022-09-24T11:27:27.041Z,18.60
2022-09-24T11:28:27.035Z,17.80
2022-09-24T11:29:27.033Z,18.10
2022-09-24T11:30:27.032Z,17.60
2022-09-24T11:31:27.081Z,17.00
2022-09-24T11:32:27.044Z,16.90
2022-09-24T11:33:27.030Z,16.20
2022-09-24T11:34:27.031Z,16.60
2022-09-24T11:35:27.024Z,16.70
2022-09-24T11:36:27.022Z,17.00
2022-09-24T11:37:27.024Z,16.60
2022-09-24T11:38:27.022Z,15.50
2022-09-24T11:39:27.023Z,15.40
2022-09-24T11:40:27.100Z,15.30
2022-09-24T11:41:27.023Z,15.50
2022-09-24T11:42:27.018Z,14.80
2022-09-24T11:43:27.020Z,15.60
2022-09-24T11:44:27.026Z,15.20
2022-09-24T11:45:27.018Z,15.70
2022-09-24T11:46:27.062Z,15.70
2022-09-24T11:47:27.014Z,14.70
2022-09-24T11:48:27.031Z,16.20
2022-09-24T11:49:27.013Z,16.70
2022-09-24T11:50:27.011Z,16.40
2022-09-24T11:51:27.011Z,16.10
2022-09-24T11:52:27.006Z,15.30
2022-09-24T11:53:27.008Z,15.80
2022-09-24T11:54:27.007Z,15.90
2022-09-24T11:55:27.004Z,15.30
2022-09-24T11:56:27.008Z,14.70
2022-09-24T11:57:27.005Z,14.60
2022-09-24T11:58:27.015Z,15.50
2022-09-24T11:59:27.003Z,15.20
2022-09-24T12:00:27.008Z,14.10
2022-09-24T12:01:27.082Z,14.50
2022-09-24T12:02:27.096Z,13.70
2022-09-24T12:03:27.043Z,15.00
2022-09-24T12:04:27.011Z,14.80
2022-09-24T12:05:27.001Z,14.40
2022-09-24T12:06:27.002Z,13.90
2022-09-24T12:07:26.998Z,14.80
2022-09-24T12:08:26.994Z,15.00
2022-09-24T12:09:26.993Z,14.50
2022-09-24T12:10:26.992Z,13.40
2022-09-24T12:11:26.992Z,13.80
2022-09-24T12:12:26.990Z,14.10
2022-09-24T12:13:26.989Z,13.60
2022-09-24T12:14:27.007Z,13.40
2022-09-24T12:15:27.001Z,13.60
2022-09-24T12:16:27.045Z,12.80
2022-09-24T12:17:26.986Z,13.50
2022-09-24T12:18:26.985Z,13.50
2022-09-24T12:19:26.985Z,13.60
2022-09-24T12:20:27.000Z,14.10
2022-09-24T12:21:26.981Z,14.10
2022-09-24T12:22:26.979Z,13.50
2022-09-24T12:23:26.979Z,13.80
2022-09-24T12:24:26.976Z,13.70
2022-09-24T12:25:26.990Z,13.60
2022-09-24T12:26:26.986Z,13.20
2022-09-24T12:27:26.986Z,13.70
2022-09-24T12:28:26.975Z,13.70
2022-09-24T12:29:26.973Z,13.50
2022-09-24T12:30:26.969Z,14.30
2022-09-24T12:31:27.017Z,14.50
2022-09-24T12:32:26.969Z,13.80
2022-09-24T12:33:26.971Z,13.60
2022-09-24T12:34:26.978Z,14.00
2022-09-24T12:35:26.970Z,13.40
2022-09-24T12:36:26.997Z,13.10
2022-09-24T12:37:26.982Z,13.50
2022-09-24T12:38:26.966Z,13.70
2022-09-24T12:39:26.965Z,13.60
2022-09-24T12:40:27.006Z,14.00
2022-09-24T12:41:26.977Z,14.10
2022-09-24T12:42:26.972Z,14.40
2022-09-24T12:43:26.988Z,14.30
2022-09-24T12:44:26.957Z,13.20
2022-09-24T12:45:26.962Z,14.50
2022-09-24T12:46:27.066Z,13.70
2022-09-24T12:47:26.963Z,14.50
2022-09-24T12:48:26.956Z,13.70
2022-09-24T12:49:26.969Z,13.80
2022-09-24T12:50:26.961Z,13.40
2022-09-24T12:51:26.956Z,13.80
2022-09-24T12:52:26.971Z,14.40
2022-09-24T12:53:26.953Z,13.80
2022-09-24T12:54:26.951Z,14.40
2022-09-24T12:55:26.949Z,14.00
2022-09-24T12:56:26.954Z,14.30
2022-09-24T12:57:26.947Z,13.80
2022-09-24T12:58:26.945Z,13.30
2022-09-24T12:59:26.947Z,13.70
2022-09-24T13:00:26.944Z,13.60
2022-09-24T13:01:27.163Z,14.30
2022-09-24T13:02:27.103Z,14.40
2022-09-24T13:03:26.950Z,14.60
2022-09-24T13:04:26.953Z,14.20
2022-09-24T13:05:26.973Z,14.10